createdAt,value
2022-10-05T00:05:00.067Z,9.6
2022-10-05T00:15:00.416Z,9.6
2022-10-05T00:25:01.439Z,9.7
2022-10-05T00:35:02.274Z,9.7
2022-10-05T00:45:03.135Z,9.9
2022-10-05T00:55:03.448Z,10
2022-10-05T01:05:03.725Z,10.1
2022-10-05T01:25:05.165Z,10.2
2022-10-05T01:35:05.677Z,10.4
2022-10-05T02:15:08.017Z,11.1
2022-10-05T02:45:09.832Z,11.5
2022-10-05T02:55:10.216Z,11.6
2022-10-05T03:15:11.297Z,12.2
2022-10-05T03:25:11.422Z,12.5
2022-10-05T03:35:12.418Z,12.7
2022-10-05T03:45:12.676Z,12.8
2022-10-05T03:55:13.697Z,12.8
2022-10-05T04:15:18.797Z,12.9
2022-10-05T04:25:16.105Z,13
2022-10-05T04:35:17.050Z,13
2022-10-05T04:45:17.706Z,13
2022-10-05T04:55:18.227Z,13.1
2022-10-05T05:25:20.010Z,13.5
2022-10-05T05:35:20.155Z,13.5
2022-10-05T05:45:21.256Z,13.6
2022-10-05T05:55:22.350Z,13.7
2022-10-05T06:05:22.379Z,13.8
2022-10-05T06:15:23.119Z,14
2022-10-05T06:25:24.066Z,14.1
2022-10-05T06:35:24.926Z,14.2
2022-10-05T06:55:26.737Z,14.5
2022-10-05T07:05:26.880Z,14.8
2022-10-05T07:15:27.124Z,14.9
2022-10-05T07:25:27.641Z,15
2022-10-05T07:35:28.425Z,15
2022-10-05T07:45:29.494Z,15
2022-10-05T07:55:29.594Z,15
2022-10-05T08:05:30.665Z,15.2
2022-10-05T08:25:31.709Z,15.4
2022-10-05T08:55:33.194Z,15.7
2022-10-05T09:05:33.496Z,15.8
2022-10-05T09:25:34.507Z,16
2022-10-05T09:55:36.499Z,16.4
2022-10-05T10:15:37.635Z,16.9
2022-10-05T10:45:39.196Z,17.3
2022-10-05T11:05:40.639Z,17.5
2022-10-05T11:15:41.314Z,17.5
2022-10-05T12:07:39.723Z,19.1
2022-10-05T12:14:54.531Z,19.2
2022-10-05T12:24:55.505Z,19.6
2022-10-05T12:44:56.621Z,20.3
2022-10-05T12:54:57.633Z,20.4
2022-10-05T13:04:58.545Z,20.5
2022-10-05T13:14:58.801Z,20.6
2022-10-05T13:24:59.727Z,20.9
2022-10-05T13:45:01.342Z,21.2
2022-10-05T13:55:01.578Z,21.3
2022-10-05T14:05:02.498Z,21.3
2022-10-05T14:15:03.525Z,21.5
2022-10-05T14:25:04.106Z,21.7
2022-10-05T14:35:04.246Z,21.9
2022-10-05T14:45:04.803Z,21.6
2022-10-05T14:55:05.675Z,21.1
2022-10-05T15:05:06.501Z,21.1
2022-10-05T15:15:07.197Z,21.2
2022-10-05T15:25:07.552Z,21.3
2022-10-05T15:35:07.705Z,21.1
2022-10-05T15:45:07.931Z,20.7
2022-10-05T15:55:08.446Z,20.4
2022-10-05T16:05:08.594Z,20.2
2022-10-05T16:15:08.793Z,20.3
2022-10-05T16:25:09.358Z,20.6
2022-10-05T16:35:10.357Z,20.4
2022-10-05T16:45:11.231Z,20.3
2022-10-05T16:55:11.648Z,20
2022-10-05T17:05:12.265Z,19.8
2022-10-05T17:15:12.760Z,19.6
2022-10-05T17:25:13.253Z,18.9
2022-10-05T17:45:14.106Z,18.2
2022-10-05T17:55:14.522Z,18.1
2022-10-05T18:15:15.984Z,18.1
2022-10-05T18:35:16.941Z,18.1
2022-10-05T18:55:18.577Z,18.2
2022-10-05T19:05:42.869Z,18.3
2022-10-05T19:15:19.769Z,18.3
2022-10-05T19:25:20.406Z,18.4
2022-10-05T19:35:21.084Z,18.4
2022-10-05T19:45:21.815Z,18.4
2022-10-05T19:55:22.809Z,18.5
2022-10-05T20:05:23.698Z,18.5
2022-10-05T20:15:24.233Z,18.5
2022-10-05T20:25:25.056Z,18.5
2022-10-05T20:35:25.338Z,18.5
2022-10-05T20:45:25.743Z,18.5
2022-10-05T20:55:26.353Z,18.5
2022-10-05T21:05:26.585Z,18.5
2022-10-05T21:15:27.170Z,18.6
2022-10-05T21:25:27.397Z,18.6
2022-10-05T21:35:27.839Z,18.6
2022-10-05T21:45:28.634Z,18.6
2022-10-05T21:55:28.830Z,18.5
2022-10-05T22:05:29.528Z,18.3
2022-10-05T22:15:30.039Z,18.2
2022-10-05T22:45:32.827Z,17.7
2022-10-05T23:55:36.263Z,13.5
